Villa del Carmen, Puerto Rico
Current Conditions -  °F | °C
As of 12:50 AM on Wednesday 22 Oct 2014 (Local Time) from TJBQ Reporting Station
Broken Clouds Broken Clouds  
Wind Chill: 75°   Ceiling: 7500
Heat Index: 75°   Visibility: 10mi
Dew Point: 72°   Wind: 5mph
Humidity: 89%   Direction: 120°ESE
Pressure: 29.98"   Gusts: NA
Location:  18.4851°N, 66.8257°W
Report Text: TJBQ 220450Z AUTO 12004KT 10SM BKN075 24/22 A2998 RMK TWR CLOSED UNTIL 1100Z.
Loading
Personal Weather Stations






























Interactive Weather Map
Tropical Storm Tracking
New forecast layout! Learn more

10-Day Weather Forecast

Advertisements
Track Severe Weather on mobile